Hlavní strana
METAR-TAF:

METAR-TAF

Letiště :

Tébessa, Alžírsko

zeměpisná šířka: 35-29N, zeměpisná délka: 008-08E, výška: 813 m

Aktuální stav počasí

Zpráva byla vytvořena před 45 minutami, v 18:00 UTC
Západojihozápadní vítr 9 kt
Teplota 13°C
Vlhkost vzduchu 38%
Tlak 1015 hPa
Viditelnost 10 km a více
Žádná oblačnost pod 1500 m, nevyskytují se cumulonimby.

METAR: DABS 221800Z 24009KT CAVOK 13/M01 Q1015

Čas: 19:45 (18:45 UTC)

Předpověď počasí

Zpráva byla vytvořena před 1 hodinou a 45 minutami, v 17:00 UTC
Předpověď platná od 22 v 18 UTC do 23 v 18 UTC
Západojihozápadní vítr 12 kt
Viditelnost 10 km a více
Skoro jasno ve výšce 4000 ft
Polojasno ve výšce 10000 ft
Pravděpodobnost 30%
od 22 v 18 UTC do 22 v 24 UTC
Skoro jasno ve výšce 2600 ft, Vertikální cumulus.
Změna
od 22 v 20 UTC do 22 v 23 UTC
Severozápadní vítr 8 kt

TAF: DABS 221700Z 2218/2318 25012KT 9999 FEW040 SCT100 PROB30 2218/2224 FEW026TCU BECMG 2220/2223 31008KT

Stav a předpovědi počasí z více než 4 000 letišť (zprávy METAR a TAF).

Červené a žluté tečky na mapě představují dostupné meteorologické stanice.

Když kurzor umístíte na tečku, zobrazí se název stanice.

Pak kliknutím zobrazíte stav a předpověď počasí.

Chcete-li změnit mapu, kliknutím na zelené tlačítko se znaménkem +mapu přiblížíte, kliknutím na zelené tlačítko se znaménkem – mapu oddálíte a kliknutím na zelené šipky přejdete na sousední mapy.


METAR-TAF: